Time;durP1;ratioP1;P1;durP2;ratioP2;P2;SDS_P1;SDS_P2;PMS_P1;PMS_P2;Temp;Humidity;BMP_temperature;BMP_pressure;BME280_temperature;BME280_humidity;BME280_pressure;Samples;Min_cycle;Max_cycle;Signal;HPM_P1;HPM_P2
2022/01/23 00:01:32;;;;;;;;;;;9.30;39.20;;;;;;5049480;28;20278;-77
2022/01/23 00:03:59;;;;;;;;;;;9.20;39.50;;;;;;5050333;28;19955;-80
2022/01/23 00:06:26;;;;;;;;;;;9.10;39.90;;;;;;5046251;28;19928;-80
2022/01/23 00:08:53;;;;;;;;;;;9.00;40.00;;;;;;5050077;28;19974;-77
2022/01/23 00:11:25;;;;;;;;;;;9.00;40.00;;;;;;5050292;28;19924;-80
2022/01/23 00:19:12;;;;;;;;;;;9.20;39.40;;;;;;5049414;28;19928;-76
2022/01/23 00:21:40;;;;;;;;;;;9.40;39.00;;;;;;5050543;28;19920;-76
2022/01/23 00:32:08;;;;;;;;;;;9.30;38.90;;;;;;5074108;28;19924;-77
2022/01/23 00:34:36;;;;;;;;;;;9.30;39.10;;;;;;5057273;28;19974;-75
2022/01/23 00:37:03;;;;;;;;;;;9.30;40.20;;;;;;5064364;28;20381;-77
2022/01/23 00:39:30;;;;;;;;;;;9.20;39.50;;;;;;5053239;28;19924;-75
2022/01/23 00:41:57;;;;;;;;;;;9.10;39.70;;;;;;5056557;28;19973;-75
2022/01/23 00:44:26;;;;;;;;;;;9.00;40.00;;;;;;5069606;28;19924;-76
2022/01/23 00:46:53;;;;;;;;;;;8.80;40.50;;;;;;5067528;28;20733;-75
2022/01/23 00:49:26;;;;;;;;;;;8.70;40.70;;;;;;5072598;28;19998;-77
2022/01/23 00:51:53;;;;;;;;;;;8.60;41.00;;;;;;5041509;28;19924;-76
2022/01/23 00:54:20;;;;;;;;;;;8.50;41.10;;;;;;5047150;28;19951;-75
2022/01/23 00:56:47;;;;;;;;;;;8.50;40.90;;;;;;5074346;28;20284;-75
2022/01/23 00:59:14;;;;;;;;;;;8.60;40.90;;;;;;5056059;28;19970;-80
2022/01/23 01:01:41;;;;;;;;;;;8.60;40.70;;;;;;5074047;28;20269;-77
2022/01/23 01:04:08;;;;;;;;;;;8.60;41.00;;;;;;5035198;28;19920;-76
2022/01/23 01:06:35;;;;;;;;;;;8.50;41.50;;;;;;5036843;28;19986;-80
2022/01/23 01:09:05;;;;;;;;;;;8.30;42.10;;;;;;5029604;28;19978;-78
2022/01/23 01:30:46;;;;;;;;;;;8.90;39.80;;;;;;5056996;28;19924;-76
2022/01/23 01:33:25;;;;;;;;;;;8.90;40.10;;;;;;5055967;28;19952;-75
2022/01/23 01:35:58;;;;;;;;;;;8.70;41.10;;;;;;5062192;28;19924;-75
2022/01/23 01:38:25;;;;;;;;;;;8.30;42.20;;;;;;5047291;28;19933;-76
2022/01/23 01:40:53;;;;;;;;;;;7.20;44.50;;;;;;5038686;28;19925;-75
2022/01/23 01:43:20;;;;;;;;;;;6.20;47.70;;;;;;5060891;28;19929;-79
2022/01/23 01:45:47;;;;;;;;;;;5.60;49.60;;;;;;5043183;28;19924;-80
2022/01/23 01:48:16;;;;;;;;;;;5.20;51.00;;;;;;5061503;28;19931;-76
2022/01/23 01:50:46;;;;;;;;;;;4.90;52.60;;;;;;5038011;28;19933;-79
2022/01/23 01:53:14;;;;;;;;;;;4.70;53.40;;;;;;5059223;28;19925;-79
2022/01/23 01:55:48;;;;;;;;;;;4.60;54.40;;;;;;5058804;28;19936;-75
2022/01/23 02:01:03;;;;;;;;;;;4.40;55.10;;;;;;5061882;28;19929;-75
2022/01/23 02:09:08;;;;;;;;;;;4.00;57.10;;;;;;5056871;28;19929;-80
2022/01/23 02:12:17;;;;;;;;;;;4.00;57.20;;;;;;5054195;28;19929;-75
2022/01/23 02:17:38;;;;;;;;;;;3.80;58.50;;;;;;5063772;28;19929;-74
2022/01/23 02:50:40;;;;;;;;;;;3.50;58.80;;;;;;5058403;28;19933;-77
2022/01/23 02:55:16;;;;;;;;;;;2.60;64.10;;;;;;5026492;28;20328;-76
2022/01/23 03:00:16;;;;;;;;;;;2.40;64.30;;;;;;5051331;28;19924;-75
2022/01/23 03:02:49;;;;;;;;;;;2.40;64.70;;;;;;5039869;28;19974;-75
2022/01/23 03:05:34;;;;;;;;;;;2.30;64.50;;;;;;5054577;28;20377;-75
2022/01/23 03:08:23;;;;;;;;;;;2.20;64.50;;;;;;5048269;28;20381;-76
2022/01/23 03:11:03;;;;;;;;;;;2.10;64.80;;;;;;5048220;28;19971;-76
2022/01/23 03:13:51;;;;;;;;;;;2.00;65.20;;;;;;5046355;28;20436;-76
2022/01/23 03:24:07;;;;;;;;;;;1.90;66.20;;;;;;5022069;28;19948;-75
2022/01/23 03:24:51;;;;;;;;;;;1.70;68.30;;;;;;5051359;28;19955;-75
2022/01/23 03:32:46;;;;;;;;;;;1.60;67.90;;;;;;5059017;28;19929;-80
2022/01/23 03:35:14;;;;;;;;;;;1.50;68.50;;;;;;5050676;28;19924;-77
2022/01/23 03:37:41;;;;;;;;;;;1.50;68.10;;;;;;5071291;28;19994;-75
2022/01/23 03:40:09;;;;;;;;;;;1.50;68.10;;;;;;5045130;28;20404;-76
2022/01/23 03:42:38;;;;;;;;;;;1.50;68.00;;;;;;5028330;28;20357;-75
2022/01/23 03:50:36;;;;;;;;;;;1.40;69.70;;;;;;5060327;28;19924;-76
2022/01/23 03:53:04;;;;;;;;;;;1.30;69.00;;;;;;5040010;28;19981;-76
2022/01/23 03:55:32;;;;;;;;;;;1.30;69.10;;;;;;5051003;28;19951;-79
2022/01/23 03:57:58;;;;;;;;;;;1.20;69.10;;;;;;5041379;28;19933;-80
2022/01/23 04:00:25;;;;;;;;;;;1.20;68.60;;;;;;5029071;28;20423;-75
2022/01/23 04:02:52;;;;;;;;;;;1.10;68.50;;;;;;5026264;28;20254;-74
2022/01/23 04:05:19;;;;;;;;;;;1.00;68.90;;;;;;5029049;28;19926;-75
2022/01/23 04:07:46;;;;;;;;;;;1.00;69.40;;;;;;5039403;28;19996;-75
2022/01/23 04:10:16;;;;;;;;;;;0.90;69.40;;;;;;5048185;28;19975;-80
2022/01/23 04:34:10;;;;;;;;;;;-0.30;71.30;;;;;;5072175;28;19924;-79
2022/01/23 05:01:15;;;;;;;;;;;-0.50;72.60;;;;;;5068025;28;20038;-75
2022/01/23 05:06:31;;;;;;;;;;;-0.50;73.70;;;;;;5049166;28;19937;-80
2022/01/23 05:08:58;;;;;;;;;;;-0.60;74.30;;;;;;5054495;28;19925;-75
2022/01/23 05:11:25;;;;;;;;;;;-0.70;73.90;;;;;;5055443;28;19936;-80
2022/01/23 05:13:52;;;;;;;;;;;-0.70;74.10;;;;;;5069776;28;19975;-74
2022/01/23 05:16:19;;;;;;;;;;;-0.70;74.60;;;;;;5056383;28;20388;-75
2022/01/23 05:18:46;;;;;;;;;;;-0.80;74.90;;;;;;5055822;28;20002;-75
2022/01/23 05:24:01;;;;;;;;;;;-0.90;76.20;;;;;;5072494;28;19943;-80
2022/01/23 05:26:28;;;;;;;;;;;-0.90;76.50;;;;;;5073777;28;20381;-75
2022/01/23 05:28:55;;;;;;;;;;;-0.90;75.90;;;;;;5069181;28;20436;-75
2022/01/23 05:31:22;;;;;;;;;;;-0.90;76.50;;;;;;5073614;28;19974;-79
2022/01/23 05:33:49;;;;;;;;;;;-1.00;77.10;;;;;;5055380;28;19931;-75
2022/01/23 05:36:15;;;;;;;;;;;-1.00;77.90;;;;;;5067919;28;19990;-75
2022/01/23 05:38:43;;;;;;;;;;;-1.00;76.90;;;;;;5053086;28;19925;-79
2022/01/23 05:41:10;;;;;;;;;;;-1.00;76.00;;;;;;5041667;28;19929;-80
2022/01/23 05:43:37;;;;;;;;;;;-1.00;75.80;;;;;;5064052;28;19925;-75
2022/01/23 05:46:04;;;;;;;;;;;-1.10;76.60;;;;;;5065751;28;19924;-77
2022/01/23 05:48:30;;;;;;;;;;;-1.10;76.40;;;;;;5056355;28;19928;-74
2022/01/23 05:50:57;;;;;;;;;;;-1.10;75.90;;;;;;5072959;28;19967;-76
2022/01/23 05:53:24;;;;;;;;;;;-1.10;75.80;;;;;;5035698;28;19932;-76
2022/01/23 05:55:51;;;;;;;;;;;-1.20;76.70;;;;;;5050639;28;19925;-76
2022/01/23 05:58:18;;;;;;;;;;;-1.20;77.10;;;;;;5041484;28;20039;-76
2022/01/23 06:00:46;;;;;;;;;;;-1.20;76.60;;;;;;5043656;28;19933;-74
2022/01/23 06:03:13;;;;;;;;;;;-1.20;76.40;;;;;;5063578;28;19925;-78
2022/01/23 06:05:40;;;;;;;;;;;-1.20;77.20;;;;;;5048189;28;19929;-79
2022/01/23 06:08:07;;;;;;;;;;;-1.10;77.70;;;;;;5050982;28;20388;-77
2022/01/23 06:10:48;;;;;;;;;;;-1.10;76.80;;;;;;5041520;28;19929;-75
2022/01/23 06:13:15;;;;;;;;;;;-1.20;77.60;;;;;;5055238;28;19933;-77
2022/01/23 06:15:42;;;;;;;;;;;-1.10;77.10;;;;;;5069220;28;20384;-79
2022/01/23 06:18:09;;;;;;;;;;;-1.10;76.90;;;;;;5060240;28;19924;-74
2022/01/23 06:20:36;;;;;;;;;;;-1.10;77.60;;;;;;5072794;28;19978;-78
2022/01/23 06:23:02;;;;;;;;;;;-1.30;78.80;;;;;;5045231;28;20344;-77
2022/01/23 06:25:34;;;;;;;;;;;-1.30;78.70;;;;;;5035358;28;20011;-79
2022/01/23 06:28:02;;;;;;;;;;;-1.40;78.90;;;;;;5062311;28;19955;-74
2022/01/23 06:30:29;;;;;;;;;;;-1.50;79.10;;;;;;5052627;28;20396;-80
2022/01/23 06:32:56;;;;;;;;;;;-1.50;79.60;;;;;;5051283;28;19990;-75
2022/01/23 06:35:23;;;;;;;;;;;-1.50;79.10;;;;;;5070297;28;19932;-75
2022/01/23 06:37:50;;;;;;;;;;;-1.60;78.90;;;;;;5071586;28;20384;-76
2022/01/23 06:40:17;;;;;;;;;;;-1.60;78.70;;;;;;5069661;28;20782;-76
2022/01/23 06:42:44;;;;;;;;;;;-1.60;78.60;;;;;;5054640;28;19935;-76
2022/01/23 06:45:11;;;;;;;;;;;-1.60;79.00;;;;;;5060828;28;19929;-76
2022/01/23 06:47:38;;;;;;;;;;;-1.60;79.70;;;;;;5035360;28;19929;-76
2022/01/23 06:50:09;;;;;;;;;;;-1.60;80.60;;;;;;5070588;28;19924;-75
2022/01/23 06:52:36;;;;;;;;;;;-1.60;80.70;;;;;;5058063;28;19975;-76
2022/01/23 06:55:03;;;;;;;;;;;-1.60;80.40;;;;;;5052981;28;19925;-75
2022/01/23 06:57:30;;;;;;;;;;;-1.50;80.80;;;;;;5066234;28;20040;-80
2022/01/23 06:59:57;;;;;;;;;;;-1.50;83.20;;;;;;5053434;28;20377;-76
2022/01/23 07:02:23;;;;;;;;;;;-1.50;83.50;;;;;;5060054;28;19928;-75
2022/01/23 07:04:50;;;;;;;;;;;-1.40;83.50;;;;;;5068800;28;20359;-75
2022/01/23 07:07:17;;;;;;;;;;;-1.30;83.90;;;;;;5071364;28;19925;-80
2022/01/23 07:09:44;;;;;;;;;;;-1.20;84.60;;;;;;5045708;28;19928;-80
2022/01/23 07:12:11;;;;;;;;;;;-1.10;84.30;;;;;;5045468;28;20441;-75
2022/01/23 07:14:39;;;;;;;;;;;-1.10;83.20;;;;;;5032222;28;19980;-76
2022/01/23 07:17:06;;;;;;;;;;;-1.10;82.80;;;;;;5037182;28;19928;-76
2022/01/23 07:19:33;;;;;;;;;;;-1.10;83.00;;;;;;5059365;28;19929;-79
2022/01/23 07:21:59;;;;;;;;;;;-1.00;82.70;;;;;;5058375;28;19932;-76
2022/01/23 07:24:26;;;;;;;;;;;-1.00;82.30;;;;;;5063215;28;19925;-76
2022/01/23 07:26:53;;;;;;;;;;;-1.00;81.80;;;;;;5042578;28;19924;-77
2022/01/23 07:29:20;;;;;;;;;;;-1.10;81.80;;;;;;5052322;28;20499;-77
2022/01/23 07:32:06;;;;;;;;;;;-1.30;83.10;;;;;;5039147;28;20386;-76
2022/01/23 07:34:33;;;;;;;;;;;-1.30;82.70;;;;;;5034968;28;19929;-75
2022/01/23 07:37:00;;;;;;;;;;;-1.20;82.60;;;;;;5033358;28;19925;-75
2022/01/23 07:39:27;;;;;;;;;;;-1.20;82.40;;;;;;5039377;28;19978;-79
2022/01/23 07:41:54;;;;;;;;;;;-1.20;83.40;;;;;;5040839;28;19936;-74
2022/01/23 07:44:20;;;;;;;;;;;-1.30;83.40;;;;;;5044863;28;19982;-74
2022/01/23 07:46:48;;;;;;;;;;;-1.20;83.40;;;;;;5050752;28;19929;-79
2022/01/23 07:49:15;;;;;;;;;;;-1.20;83.00;;;;;;5035416;28;19929;-76
2022/01/23 07:51:42;;;;;;;;;;;-1.20;82.70;;;;;;5069698;28;19925;-75
2022/01/23 07:54:09;;;;;;;;;;;-1.10;82.30;;;;;;5072052;28;20450;-77
2022/01/23 07:56:38;;;;;;;;;;;-1.00;82.40;;;;;;5054084;28;19932;-75
2022/01/23 07:59:05;;;;;;;;;;;-0.80;82.00;;;;;;5052368;28;19939;-75
2022/01/23 08:01:32;;;;;;;;;;;-0.60;82.10;;;;;;5055347;28;19924;-76
2022/01/23 08:03:59;;;;;;;;;;;-0.50;81.00;;;;;;5053522;28;19925;-75
2022/01/23 08:06:31;;;;;;;;;;;-0.30;80.90;;;;;;5064314;28;19924;-77
2022/01/23 08:08:58;;;;;;;;;;;0.00;79.80;;;;;;5055945;28;19932;-76
2022/01/23 08:11:25;;;;;;;;;;;0.20;78.90;;;;;;5070490;28;19936;-76
2022/01/23 08:13:52;;;;;;;;;;;0.40;78.40;;;;;;5053728;28;19947;-79
2022/01/23 08:16:19;;;;;;;;;;;0.50;79.20;;;;;;5046019;28;19925;-77
2022/01/23 08:18:46;;;;;;;;;;;0.70;78.80;;;;;;5064848;28;19974;-76
2022/01/23 08:21:13;;;;;;;;;;;0.90;78.00;;;;;;5053459;28;19932;-76
2022/01/23 08:23:40;;;;;;;;;;;1.00;78.00;;;;;;5051693;28;19925;-76
2022/01/23 08:26:07;;;;;;;;;;;1.10;79.20;;;;;;5025408;28;20301;-74
2022/01/23 08:28:35;;;;;;;;;;;1.30;78.70;;;;;;5021755;28;19964;-76
2022/01/23 08:31:02;;;;;;;;;;;1.50;77.80;;;;;;5049782;28;20396;-77
2022/01/23 08:33:29;;;;;;;;;;;1.60;76.60;;;;;;5030867;28;19975;-79
2022/01/23 08:35:57;;;;;;;;;;;1.90;75.70;;;;;;5057598;28;19982;-79
2022/01/23 08:38:24;;;;;;;;;;;2.00;75.80;;;;;;5045516;28;19925;-77
2022/01/23 08:43:36;;;;;;;;;;;2.40;75.50;;;;;;5033907;28;19925;-75
2022/01/23 08:46:04;;;;;;;;;;;2.60;74.00;;;;;;5035443;28;20014;-74
2022/01/23 08:48:31;;;;;;;;;;;2.90;73.70;;;;;;5045484;28;20305;-76
2022/01/23 08:50:58;;;;;;;;;;;3.10;72.60;;;;;;5040085;28;19925;-79
2022/01/23 08:53:25;;;;;;;;;;;3.20;72.40;;;;;;5036647;28;19983;-77
2022/01/23 08:55:52;;;;;;;;;;;3.40;71.50;;;;;;5035814;28;19928;-75
2022/01/23 08:58:19;;;;;;;;;;;3.60;70.50;;;;;;5042818;28;20352;-76
2022/01/23 09:00:46;;;;;;;;;;;3.80;70.30;;;;;;5040965;28;20282;-76
2022/01/23 09:03:13;;;;;;;;;;;4.00;69.40;;;;;;5022787;28;20443;-80
2022/01/23 09:05:40;;;;;;;;;;;4.10;68.80;;;;;;5036858;28;19964;-76
2022/01/23 09:08:07;;;;;;;;;;;4.30;68.90;;;;;;5047869;28;20356;-76
2022/01/23 09:10:41;;;;;;;;;;;4.40;68.40;;;;;;5057400;28;20522;-76
2022/01/23 09:13:31;;;;;;;;;;;4.50;68.40;;;;;;5052709;28;19936;-76
2022/01/23 09:15:58;;;;;;;;;;;4.60;68.00;;;;;;5064489;28;19936;-75
2022/01/23 09:18:25;;;;;;;;;;;4.70;67.90;;;;;;5026131;28;19933;-77
2022/01/23 09:20:52;;;;;;;;;;;4.80;67.70;;;;;;5033182;28;19925;-76
2022/01/23 09:23:19;;;;;;;;;;;4.80;67.20;;;;;;5037123;28;19925;-75
2022/01/23 09:25:46;;;;;;;;;;;4.90;67.30;;;;;;5036888;28;19925;-76
2022/01/23 09:28:14;;;;;;;;;;;5.00;66.90;;;;;;5035449;28;19925;-76
2022/01/23 09:30:43;;;;;;;;;;;5.10;66.80;;;;;;5062027;28;19977;-76
2022/01/23 09:33:10;;;;;;;;;;;5.10;65.90;;;;;;5055920;28;19950;-77
2022/01/23 09:35:37;;;;;;;;;;;5.00;65.80;;;;;;5052086;28;20344;-76
2022/01/23 09:38:04;;;;;;;;;;;5.10;66.00;;;;;;5050415;28;19932;-77
2022/01/23 09:40:32;;;;;;;;;;;5.10;65.70;;;;;;5060099;28;19924;-76
2022/01/23 09:43:04;;;;;;;;;;;5.10;65.60;;;;;;5044249;28;20384;-75
2022/01/23 09:45:32;;;;;;;;;;;5.20;65.50;;;;;;5041944;28;19955;-77
2022/01/23 09:48:01;;;;;;;;;;;5.40;65.80;;;;;;5055507;28;20380;-76
2022/01/23 09:50:29;;;;;;;;;;;5.50;65.50;;;;;;5073470;28;19974;-74
2022/01/23 09:52:57;;;;;;;;;;;5.60;65.40;;;;;;5057788;28;19928;-75
2022/01/23 09:55:26;;;;;;;;;;;5.70;64.50;;;;;;5055562;28;19925;-77
2022/01/23 09:57:54;;;;;;;;;;;5.90;63.90;;;;;;5043983;28;19924;-75
2022/01/23 10:00:24;;;;;;;;;;;6.00;63.40;;;;;;5057046;28;19933;-77
2022/01/23 10:02:51;;;;;;;;;;;6.10;63.10;;;;;;5017784;28;19952;-77
2022/01/23 10:05:22;;;;;;;;;;;6.10;62.30;;;;;;5024523;28;19925;-78
2022/01/23 10:07:49;;;;;;;;;;;6.20;63.00;;;;;;5043272;28;19925;-76
2022/01/23 10:10:27;;;;;;;;;;;6.20;61.90;;;;;;5028810;28;19929;-76
2022/01/23 10:12:58;;;;;;;;;;;6.20;62.20;;;;;;5045532;28;20390;-78
2022/01/23 10:15:27;;;;;;;;;;;6.30;62.10;;;;;;5036083;28;20405;-77
2022/01/23 10:17:54;;;;;;;;;;;6.40;61.50;;;;;;5018824;28;19972;-76
2022/01/23 10:20:22;;;;;;;;;;;6.30;60.50;;;;;;5047215;28;19971;-77
2022/01/23 10:22:51;;;;;;;;;;;6.40;62.50;;;;;;5034674;28;19925;-77
2022/01/23 10:25:19;;;;;;;;;;;6.50;60.50;;;;;;5036897;28;19924;-76
2022/01/23 10:27:50;;;;;;;;;;;6.40;61.00;;;;;;5034409;28;19944;-76
2022/01/23 10:30:18;;;;;;;;;;;6.50;59.90;;;;;;5065464;28;19925;-77
2022/01/23 10:32:58;;;;;;;;;;;6.50;60.30;;;;;;5063006;28;20412;-77
2022/01/23 10:35:26;;;;;;;;;;;6.50;60.30;;;;;;5060787;28;19932;-77
2022/01/23 10:37:55;;;;;;;;;;;6.60;60.00;;;;;;5062222;28;20414;-77
2022/01/23 10:40:26;;;;;;;;;;;6.70;59.80;;;;;;5072455;28;19948;-76
2022/01/23 10:48:35;;;;;;;;;;;7.00;58.70;;;;;;5070064;28;19939;-77
2022/01/23 10:51:17;;;;;;;;;;;7.00;59.40;;;;;;5053117;28;20389;-77
2022/01/23 10:54:02;;;;;;;;;;;7.10;58.60;;;;;;5031441;28;19925;-76
2022/01/23 10:56:30;;;;;;;;;;;7.20;58.30;;;;;;5040266;28;19929;-76
2022/01/23 10:58:58;;;;;;;;;;;7.20;58.00;;;;;;5048749;28;19929;-75
2022/01/23 11:01:27;;;;;;;;;;;7.30;57.80;;;;;;5055766;28;19936;-75
2022/01/23 11:04:05;;;;;;;;;;;7.10;57.10;;;;;;5041579;28;20024;-77
2022/01/23 11:06:32;;;;;;;;;;;7.20;57.80;;;;;;5034041;28;19997;-75
2022/01/23 11:09:11;;;;;;;;;;;7.40;57.40;;;;;;5061327;28;19924;-75
2022/01/23 11:11:47;;;;;;;;;;;7.50;56.50;;;;;;5056950;28;19967;-76
2022/01/23 11:19:47;;;;;;;;;;;7.80;56.00;;;;;;5065073;28;19932;-77
2022/01/23 11:22:24;;;;;;;;;;;7.90;55.70;;;;;;5062138;28;20408;-76
2022/01/23 11:24:53;;;;;;;;;;;7.90;55.20;;;;;;5071026;28;19935;-75
2022/01/23 11:27:22;;;;;;;;;;;8.00;55.50;;;;;;5071441;28;19946;-75
2022/01/23 11:29:52;;;;;;;;;;;8.20;55.70;;;;;;5045007;28;19924;-76
2022/01/23 11:32:20;;;;;;;;;;;8.40;55.10;;;;;;5040835;28;20388;-76
2022/01/23 11:34:47;;;;;;;;;;;8.60;55.70;;;;;;5071397;28;19936;-75
2022/01/23 11:37:16;;;;;;;;;;;8.70;53.90;;;;;;5071524;28;19978;-79
2022/01/23 11:39:49;;;;;;;;;;;8.70;52.70;;;;;;5049730;28;19925;-75
2022/01/23 11:53:46;;;;;;;;;;;8.90;52.90;;;;;;5054357;28;19948;-77
2022/01/23 11:56:27;;;;;;;;;;;8.80;52.10;;;;;;5032209;28;19925;-77
2022/01/23 11:59:12;;;;;;;;;;;8.50;52.80;;;;;;5039413;28;19925;-77
2022/01/23 12:01:40;;;;;;;;;;;8.60;52.80;;;;;;5034319;28;19928;-75
2022/01/23 12:04:14;;;;;;;;;;;8.90;53.20;;;;;;5044645;28;19929;-76
2022/01/23 12:06:42;;;;;;;;;;;8.90;52.50;;;;;;5071413;28;19928;-75
2022/01/23 12:09:09;;;;;;;;;;;9.20;52.30;;;;;;5051577;28;19970;-75
2022/01/23 12:17:20;;;;;;;;;;;9.10;49.60;;;;;;5028346;28;19933;-76
2022/01/23 12:19:49;;;;;;;;;;;9.10;50.90;;;;;;5039048;28;19941;-77
2022/01/23 12:22:24;;;;;;;;;;;9.40;50.50;;;;;;5069292;28;19982;-75
2022/01/23 12:24:52;;;;;;;;;;;9.60;49.40;;;;;;5053355;28;19928;-76
2022/01/23 12:27:30;;;;;;;41.90;26.13;;;9.60;49.40;;;;;;5056071;28;19924;-75
2022/01/23 12:30:20;;;;;;;48.70;29.40;;;9.60;49.50;;;;;;5052180;28;20052;-76
2022/01/23 12:33:19;;;;;;;43.30;27.10;;;9.80;49.70;;;;;;5041475;28;20084;-76
2022/01/23 12:35:51;;;;;;;;;;;9.90;49.70;;;;;;5036368;28;21495;-77
2022/01/23 12:38:18;;;;;;;;;;;10.00;48.90;;;;;;5047191;28;19925;-78
2022/01/23 12:40:47;;;;;;;;;;;10.10;48.90;;;;;;5057414;28;19931;-79
2022/01/23 12:43:18;;;;;;;;;;;10.20;49.20;;;;;;5037483;28;19921;-79
2022/01/23 12:46:05;;;;;;;;;;;10.30;48.30;;;;;;5041555;28;19925;-79
2022/01/23 12:48:36;;;;;;;;;;;10.50;47.80;;;;;;5032986;28;20395;-78
2022/01/23 12:51:05;;;;;;;;;;;10.50;47.00;;;;;;5041528;28;19988;-77
2022/01/23 12:53:57;;;;;;;;;;;10.60;47.20;;;;;;5031244;28;19925;-78
2022/01/23 12:56:28;;;;;;;;;;;10.70;47.20;;;;;;5043812;28;19927;-78
2022/01/23 12:59:05;;;;;;;;;;;10.80;46.10;;;;;;5059986;28;20836;-79
2022/01/23 13:01:32;;;;;;;;;;;10.70;46.20;;;;;;5037669;28;19927;-80
2022/01/23 13:04:01;;;;;;;;;;;10.80;46.60;;;;;;5046736;28;19920;-77
2022/01/23 13:06:41;;;;;;;;;;;10.80;47.00;;;;;;5056100;28;19924;-78
2022/01/23 13:12:07;;;;;;;;;;;11.00;46.40;;;;;;5048965;28;19921;-78
2022/01/23 13:14:36;;;;;;;;;;;11.10;46.60;;;;;;5043988;28;20386;-78
2022/01/23 13:17:42;;;;;;;;;;;11.00;45.90;;;;;;5054926;28;22443;-78
2022/01/23 13:26:27;;;;;;;;;;;10.90;46.10;;;;;;5062891;28;19974;-78
2022/01/23 13:31:52;;;;;;;;;;;10.50;46.80;;;;;;4971886;28;19972;-79
2022/01/23 13:34:40;;;;;;;;;;;10.70;47.40;;;;;;5015698;28;19921;-77
2022/01/23 13:37:07;;;;;;;;;;;10.80;46.30;;;;;;5021001;28;19921;-80
2022/01/23 13:39:40;;;;;;;;;;;11.00;46.50;;;;;;5045419;28;19928;-77
2022/01/23 13:42:17;;;;;;;;;;;11.10;45.70;;;;;;5045673;28;20319;-77
2022/01/23 13:59:10;;;;;;;;;;;11.10;45.60;;;;;;5028720;28;19932;-77
2022/01/23 14:04:43;;;;;;;;;;;11.10;45.40;;;;;;5045015;28;19974;-77
2022/01/23 14:07:09;;;;;;;;;;;10.80;46.10;;;;;;5059138;28;19924;-78
2022/01/23 14:09:43;;;;;;;;;;;10.60;46.60;;;;;;5054308;28;19927;-77
2022/01/23 14:12:11;;;;;;;;;;;10.70;47.20;;;;;;5053692;28;20714;-76
2022/01/23 14:14:55;;;;;;;;;;;11.00;46.90;;;;;;5040103;28;19928;-79
2022/01/23 14:17:24;;;;;;;;;;;11.00;46.60;;;;;;5049930;28;19920;-78
2022/01/23 14:19:56;;;;;;;;;;;11.00;46.70;;;;;;5029577;28;19978;-75
2022/01/23 14:22:30;;;;;;;;;;;10.80;46.30;;;;;;5030628;28;20393;-80
2022/01/23 14:25:09;;;;;;;;;;;10.80;46.40;;;;;;5050322;28;19920;-78
2022/01/23 14:27:41;;;;;;;;;;;10.70;47.10;;;;;;5033426;28;20452;-77
2022/01/23 14:30:14;;;;;;;;;;;10.70;47.40;;;;;;5028939;28;19924;-78
2022/01/23 14:32:46;;;;;;;;;;;10.70;47.40;;;;;;5032968;28;19925;-77
2022/01/23 14:35:15;;;;;;;;;;;10.60;47.60;;;;;;5039460;28;19928;-76
2022/01/23 14:37:43;;;;;;;;;;;10.60;48.30;;;;;;5047110;28;19921;-77
2022/01/23 14:40:15;;;;;;;;;;;10.50;48.30;;;;;;5034378;28;19944;-79
2022/01/23 14:42:58;;;;;;;;;;;10.50;48.40;;;;;;5021967;28;19921;-76
2022/01/23 14:45:25;;;;;;;;;;;10.40;48.10;;;;;;5038807;28;20435;-76
2022/01/23 14:47:52;;;;;;;;;;;10.30;48.40;;;;;;5049018;28;19928;-76
2022/01/23 14:50:25;;;;;;;;;;;10.30;48.80;;;;;;5051140;28;20348;-76
2022/01/23 14:52:52;;;;;;;;;;;10.20;48.30;;;;;;5071527;28;20490;-77
2022/01/23 14:55:20;;;;;;;;;;;10.20;48.70;;;;;;5024764;28;19920;-77
2022/01/23 14:57:47;;;;;;;;;;;10.20;49.10;;;;;;5037833;28;19921;-76
2022/01/23 15:00:15;;;;;;;;;;;10.10;49.00;;;;;;5056158;28;20458;-79
2022/01/23 15:02:42;;;;;;;;;;;10.10;49.40;;;;;;5053755;28;19921;-75
2022/01/23 15:05:09;;;;;;;;;;;9.90;49.20;;;;;;5021644;28;19991;-76
2022/01/23 15:07:38;;;;;;;;;;;9.90;49.70;;;;;;5032285;28;19974;-76
2022/01/23 15:10:05;;;;;;;;;;;10.00;49.40;;;;;;5033949;28;19921;-76
2022/01/23 15:12:32;;;;;;;;;;;9.90;49.30;;;;;;5065418;28;20331;-76
2022/01/23 15:14:59;;;;;;;;;;;9.90;50.00;;;;;;5037656;28;19921;-76
2022/01/23 15:17:26;;;;;;;;;;;9.90;49.90;;;;;;5049180;28;19920;-76
2022/01/23 15:19:53;;;;;;;;;;;9.90;50.40;;;;;;5037823;28;19925;-78
2022/01/23 15:22:21;;;;;;;;;;;9.80;50.40;;;;;;5037288;28;19932;-77
2022/01/23 15:24:48;;;;;;;;;;;9.80;50.80;;;;;;5047490;28;19920;-76
2022/01/23 15:27:16;;;;;;;;;;;9.70;50.80;;;;;;5053851;28;20336;-76
2022/01/23 15:29:44;;;;;;;;;;;9.70;51.30;;;;;;5071051;28;19980;-77
2022/01/23 15:32:11;;;;;;;;;;;9.60;51.50;;;;;;5046204;28;19924;-76
2022/01/23 15:34:38;;;;;;;;;;;9.60;51.40;;;;;;5041627;28;19921;-77
2022/01/23 15:37:05;;;;;;;;;;;9.60;51.60;;;;;;5052208;28;19920;-76
2022/01/23 15:39:32;;;;;;;;;;;9.50;51.60;;;;;;5019590;28;19920;-76
2022/01/23 15:41:59;;;;;;;;;;;9.50;52.10;;;;;;5042017;28;19921;-75
2022/01/23 15:44:26;;;;;;;;;;;9.40;52.20;;;;;;5028602;28;19921;-76
2022/01/23 15:46:54;;;;;;;;;;;9.30;52.80;;;;;;5049764;28;20377;-75
2022/01/23 15:49:20;;;;;;;;;;;9.10;53.40;;;;;;5037470;28;19924;-77
2022/01/23 15:51:47;;;;;;;;;;;9.00;53.90;;;;;;5070329;28;20084;-76
2022/01/23 15:54:15;;;;;;;;;;;8.90;54.40;;;;;;5037548;28;20377;-77
2022/01/23 15:56:42;;;;;;;;;;;8.80;54.80;;;;;;5068223;28;19970;-76
2022/01/23 15:59:09;;;;;;;;;;;8.60;55.20;;;;;;5038051;28;19924;-76
2022/01/23 16:01:36;;;;;;;;;;;8.50;55.60;;;;;;5018833;28;20274;-79
2022/01/23 16:04:03;;;;;;;;;;;8.40;56.00;;;;;;5026748;28;19967;-77
2022/01/23 16:06:31;;;;;;;;;;;8.20;56.40;;;;;;5045049;28;20393;-78
2022/01/23 16:08:58;;;;;;;;;;;8.20;56.60;;;;;;5026951;28;19921;-76
2022/01/23 16:11:24;;;;;;;;;;;8.00;56.70;;;;;;5026061;28;19925;-76
2022/01/23 16:13:51;;;;;;;;;;;7.90;56.80;;;;;;5040671;28;19982;-75
2022/01/23 16:16:19;;;;;;;;;;;7.80;57.30;;;;;;5069539;28;20277;-75
2022/01/23 16:18:46;;;;;;;;;;;7.70;57.80;;;;;;5069204;28;19925;-77
2022/01/23 16:21:13;;;;;;;;;;;7.60;58.10;;;;;;5027361;28;19921;-76
2022/01/23 16:23:41;;;;;;;;;;;7.40;58.60;;;;;;5047947;28;20435;-79
2022/01/23 16:26:19;;;;;;;;;;;7.30;58.40;;;;;;5031893;28;20448;-76
2022/01/23 16:28:47;;;;;;;;;;;7.00;59.20;;;;;;5069367;28;19921;-78
2022/01/23 16:31:14;;;;;;;;;;;7.00;59.10;;;;;;5028742;28;20304;-75
2022/01/23 16:33:41;;;;;;;;;;;6.80;59.10;;;;;;5034052;28;19920;-77
2022/01/23 16:36:08;;;;;;;;;;;6.70;59.50;;;;;;5054458;28;20373;-76
2022/01/23 16:38:36;;;;;;;;;;;6.60;60.30;;;;;;5053552;28;20340;-75
2022/01/23 16:41:03;;;;;;;;;;;6.50;60.90;;;;;;5036908;28;19970;-80
2022/01/23 16:43:30;;;;;;;;;;;6.30;61.40;;;;;;5018568;28;19975;-78
2022/01/23 16:45:58;;;;;;;;;;;6.20;61.30;;;;;;5036385;28;19925;-79
2022/01/23 16:48:25;;;;;;;;;;;6.10;61.30;;;;;;5035652;28;20385;-79
2022/01/23 16:50:55;;;;;;;;;;;6.00;61.60;;;;;;5029964;28;20018;-77
2022/01/23 16:53:22;;;;;;;;;;;5.90;62.50;;;;;;5037201;28;20334;-82
2022/01/23 16:55:56;;;;;;;;;;;5.80;62.80;;;;;;5036489;28;19931;-80
2022/01/23 16:58:28;;;;;;;;;;;5.70;62.60;;;;;;5023294;28;19940;-82
2022/01/23 17:00:55;;;;;;;;;;;5.50;63.10;;;;;;5032645;28;20013;-82
2022/01/23 17:03:23;;;;;;;;;;;5.40;63.60;;;;;;5035588;28;19948;-80
2022/01/23 17:05:50;;;;;;;;;;;5.30;63.60;;;;;;5054293;28;19924;-82
2022/01/23 17:08:17;;;;;;;;;;;5.20;63.90;;;;;;5036985;28;19927;-80
2022/01/23 17:10:45;;;;;;;;;;;5.00;64.50;;;;;;5034682;28;19928;-82
2022/01/23 17:13:12;;;;;;;;;;;4.90;64.60;;;;;;5054193;28;19925;-79
2022/01/23 17:15:39;;;;;;;;;;;4.80;65.10;;;;;;5033757;28;19929;-80
2022/01/23 17:18:06;;;;;;;;;;;4.70;65.20;;;;;;5046929;28;19924;-80
2022/01/23 17:20:33;;;;;;;;;;;4.70;65.50;;;;;;5055558;28;20346;-81
2022/01/23 17:23:00;;;;;;;;;;;4.60;65.80;;;;;;5036477;28;20388;-81
2022/01/23 17:25:27;;;;;;;;;;;4.60;66.00;;;;;;5044950;28;19924;-82
2022/01/23 17:27:54;;;;;;;;;;;4.60;66.50;;;;;;5052472;28;19920;-81
2022/01/23 17:30:21;;;;;;;;;;;4.50;66.00;;;;;;5065545;28;20279;-82
2022/01/23 17:32:53;;;;;;;;;;;4.40;65.90;;;;;;5040378;28;19921;-80
2022/01/23 17:35:21;;;;;;;;;;;4.30;66.20;;;;;;5078297;28;20451;-77
2022/01/23 17:37:49;;;;;;;;;;;4.20;65.70;;;;;;5046873;28;19920;-80
2022/01/23 17:40:16;;;;;;;;;;;4.10;66.60;;;;;;5050022;28;19971;-79
2022/01/23 17:42:43;;;;;;;;;;;4.00;65.90;;;;;;5054692;28;19920;-82
2022/01/23 17:45:14;;;;;;;;;;;3.90;66.30;;;;;;5044578;28;19921;-81
2022/01/23 17:48:19;;;;;;;;;;;3.80;67.20;;;;;;5047518;28;19931;-81
2022/01/23 17:50:33;;;;;;;;;;;3.70;68.50;;;;;;5053708;28;19982;-81
2022/01/23 17:53:01;;;;;;;;;;;3.60;69.30;;;;;;5052116;28;20015;-81
2022/01/23 17:55:29;;;;;;;;;;;3.50;68.90;;;;;;5055572;28;19935;-80
2022/01/23 17:57:57;;;;;;;55.63;32.55;;;3.40;68.60;;;;;;5055610;28;20335;-78
2022/01/23 18:00:25;;;;;;;57.63;31.42;;;3.30;68.40;;;;;;5032954;28;20139;-79
2022/01/23 18:02:55;;;;;;;62.60;34.25;;;3.30;68.90;;;;;;5044784;28;20063;-79
2022/01/23 18:05:24;;;;;;;58.70;32.85;;;3.10;69.60;;;;;;5020177;28;20060;-79